createdAt,value
2023-04-12T00:01:37.642Z,100380.13
2023-04-12T00:04:05.861Z,100427.09
2023-04-12T00:06:34.027Z,100420.03
2023-04-12T00:09:04.393Z,100405.66
2023-04-12T00:11:32.449Z,100365.97
2023-04-12T00:14:01.444Z,100380.28
2023-04-12T00:16:29.308Z,100391.75
2023-04-12T00:18:59.017Z,100371.00
2023-04-12T00:21:28.911Z,100366.91
2023-04-12T00:23:57.343Z,100368.50
2023-04-12T00:26:26.218Z,100386.28
2023-04-12T00:28:56.195Z,100359.22
2023-04-12T00:31:25.318Z,100358.72
2023-04-12T00:33:53.332Z,100350.56
2023-04-12T00:36:22.366Z,100377.81
2023-04-12T00:38:50.154Z,100350.63
2023-04-12T00:41:18.089Z,100344.88
2023-04-12T00:43:48.321Z,100368.56
2023-04-12T00:46:18.291Z,100370.44
2023-04-12T00:48:48.642Z,100322.91
2023-04-12T00:51:18.462Z,100346.13
2023-04-12T00:53:46.507Z,100295.97
2023-04-12T00:56:14.673Z,100350.97
2023-04-12T00:58:43.840Z,100332.19
2023-04-12T01:01:11.859Z,100283.38
2023-04-12T01:03:43.864Z,100339.66
2023-04-12T01:06:34.578Z,100337.34
2023-04-12T01:09:27.468Z,100326.16
2023-04-12T01:12:29.998Z,100333.00
2023-04-12T01:15:12.342Z,100330.00
2023-04-12T01:18:14.797Z,100255.81
2023-04-12T01:20:51.422Z,100257.72
2023-04-12T01:23:19.318Z,100312.63
2023-04-12T01:26:09.093Z,100309.09
2023-04-12T01:28:41.567Z,100307.16
2023-04-12T01:31:10.690Z,100224.34
2023-04-12T01:33:41.997Z,100289.22
2023-04-12T01:36:14.224Z,100236.06
2023-04-12T01:38:42.540Z,100283.03
2023-04-12T01:41:13.071Z,100298.19
2023-04-12T01:43:44.969Z,100293.84
2023-04-12T01:46:16.994Z,100292.25
2023-04-12T01:48:51.123Z,100294.66
2023-04-12T01:51:47.058Z,100295.47
2023-04-12T01:54:20.131Z,100275.47
2023-04-12T01:56:55.181Z,100200.81
2023-04-12T01:59:26.783Z,100256.41
2023-04-12T02:01:55.103Z,100263.88
2023-04-12T02:04:26.476Z,100210.66
2023-04-12T02:06:57.924Z,100212.09
2023-04-12T02:09:25.685Z,100258.44
2023-04-12T02:11:53.915Z,100228.22
2023-04-12T02:14:22.109Z,100231.69
2023-04-12T02:16:51.078Z,100229.25
2023-04-12T02:19:21.249Z,100239.06
2023-04-12T02:21:50.057Z,100236.72
2023-04-12T02:24:17.902Z,100225.00
2023-04-12T02:26:46.268Z,100261.16
2023-04-12T02:29:15.706Z,100236.72
2023-04-12T02:31:44.286Z,100215.19
2023-04-12T02:34:13.593Z,100201.69
2023-04-12T02:36:50.577Z,100233.63
2023-04-12T02:39:19.008Z,100216.16
2023-04-12T02:41:49.020Z,100208.56
2023-04-12T02:44:17.428Z,100232.91
2023-04-12T02:46:53.707Z,100232.91
2023-04-12T02:49:21.502Z,100224.22
2023-04-12T02:51:49.623Z,100221.81
2023-04-12T02:54:22.133Z,100196.66
2023-04-12T02:56:53.650Z,100181.84
2023-04-12T02:59:35.216Z,100186.88
2023-04-12T03:02:15.264Z,100172.56
2023-04-12T03:04:47.052Z,100144.31
2023-04-12T03:07:21.422Z,100186.50
2023-04-12T03:09:51.765Z,100145.53
2023-04-12T03:12:21.788Z,100174.78
2023-04-12T03:15:10.256Z,100153.00
2023-04-12T03:17:38.075Z,100167.50
2023-04-12T03:20:10.348Z,100117.56
2023-04-12T03:22:43.876Z,100162.88
2023-04-12T03:25:13.300Z,100164.00
2023-04-12T03:27:47.671Z,100162.06
2023-04-12T03:30:19.083Z,100139.47
2023-04-12T03:32:47.700Z,100085.59
2023-04-12T03:35:15.753Z,100136.03
2023-04-12T03:37:44.056Z,100144.91
2023-04-12T03:40:13.605Z,100109.81
2023-04-12T03:42:46.714Z,100102.38
2023-04-12T03:45:16.244Z,100102.94
2023-04-12T03:47:49.848Z,100068.47
2023-04-12T03:50:20.878Z,100045.69
2023-04-12T03:52:55.827Z,100118.91
2023-04-12T03:55:29.405Z,100112.72
2023-04-12T03:57:58.534Z,100054.06
2023-04-12T04:00:32.195Z,100058.38
2023-04-12T04:03:09.949Z,100069.88
2023-04-12T04:06:02.436Z,100114.44
2023-04-12T04:08:33.264Z,100101.94
2023-04-12T04:11:02.043Z,100109.00
2023-04-12T04:13:38.135Z,100045.50
2023-04-12T04:16:12.231Z,100111.72
2023-04-12T04:18:41.881Z,100071.69
2023-04-12T04:21:14.501Z,100104.97
2023-04-12T04:23:44.937Z,100105.78
2023-04-12T04:26:14.000Z,100104.97
2023-04-12T04:28:51.164Z,100103.06
2023-04-12T04:31:26.603Z,100101.44
2023-04-12T04:33:54.794Z,100061.13
2023-04-12T04:36:30.384Z,100102.06
2023-04-12T04:39:04.340Z,100063.34
2023-04-12T04:41:40.607Z,100067.06
2023-04-12T04:44:14.701Z,100093.28
2023-04-12T04:46:53.667Z,100044.28
2023-04-12T04:49:22.896Z,100088.84
2023-04-12T04:51:50.867Z,100040.88
2023-04-12T04:54:20.603Z,100049.13
2023-04-12T04:56:48.409Z,100009.31
2023-04-12T04:59:18.600Z,100077.34
2023-04-12T05:01:48.765Z,100057.16
2023-04-12T05:04:18.402Z,100060.19
2023-04-12T05:06:46.826Z,100078.53
2023-04-12T05:09:18.018Z,99959.78
2023-04-12T05:11:55.050Z,100059.63
2023-04-12T05:14:23.413Z,100076.25
2023-04-12T05:16:51.826Z,100035.31
2023-04-12T05:19:19.927Z,100052.16
2023-04-12T05:21:47.751Z,100041.75
2023-04-12T05:24:16.186Z,100023.31
2023-04-12T05:26:48.625Z,100036.44
2023-04-12T05:29:16.771Z,100059.59
2023-04-12T05:31:45.512Z,100037.00
2023-04-12T05:34:19.469Z,100067.88
2023-04-12T05:36:54.483Z,100048.41
2023-04-12T05:39:23.356Z,100030.88
2023-04-12T05:41:53.623Z,100045.91
2023-04-12T05:44:21.591Z,100067.66
2023-04-12T05:46:49.389Z,100035.72
2023-04-12T05:49:17.621Z,100069.56
2023-04-12T05:51:45.925Z,100048.50
2023-04-12T05:54:22.862Z,100057.97
2023-04-12T05:56:55.758Z,100035.81
2023-04-12T05:59:24.025Z,100048.72
2023-04-12T06:01:51.843Z,100020.16
2023-04-12T06:04:21.162Z,100063.22
2023-04-12T06:06:52.401Z,100046.88
2023-04-12T06:09:22.709Z,100013.44
2023-04-12T06:11:52.564Z,100003.75
2023-04-12T06:14:20.931Z,100050.22
2023-04-12T06:16:48.721Z,100041.88
2023-04-12T06:19:18.314Z,100036.59
2023-04-12T06:21:49.856Z,100033.44
2023-04-12T06:24:19.840Z,99969.47
2023-04-12T06:26:48.372Z,100024.09
2023-04-12T06:29:17.445Z,100030.72
2023-04-12T06:31:48.636Z,100022.97
2023-04-12T06:34:17.134Z,100008.56
2023-04-12T06:36:47.932Z,100003.53
2023-04-12T06:39:17.060Z,99987.09
2023-04-12T06:41:47.463Z,100006.63
2023-04-12T06:44:20.143Z,100029.53
2023-04-12T06:46:48.324Z,100020.38
2023-04-12T06:49:16.331Z,99992.53
2023-04-12T06:51:44.789Z,100006.53
2023-04-12T06:54:13.106Z,99993.41
2023-04-12T06:56:43.386Z,100008.94
2023-04-12T06:59:11.400Z,99993.66
2023-04-12T07:01:41.309Z,99954.94
2023-04-12T07:04:09.871Z,99950.31
2023-04-12T07:06:37.682Z,99997.91
2023-04-12T07:09:05.556Z,99951.50
2023-04-12T07:11:33.698Z,99871.66
2023-04-12T07:14:01.654Z,99994.59
2023-04-12T07:16:31.775Z,99977.88
2023-04-12T07:19:01.070Z,99953.69
2023-04-12T07:21:29.017Z,99968.59
2023-04-12T07:23:56.885Z,99976.00
2023-04-12T07:26:24.735Z,99915.00
2023-04-12T07:28:52.463Z,99965.94
2023-04-12T07:31:20.684Z,99972.97
2023-04-12T07:33:48.607Z,99963.41
2023-04-12T07:36:21.283Z,99946.38
2023-04-12T07:38:51.612Z,99953.00
2023-04-12T07:41:19.736Z,99951.56
2023-04-12T07:43:49.052Z,99954.78
2023-04-12T07:46:17.324Z,99890.19
2023-04-12T07:48:45.201Z,99948.84
2023-04-12T07:51:13.601Z,99930.03
2023-04-12T07:53:42.524Z,99935.03
2023-04-12T07:56:10.618Z,99948.22
2023-04-12T07:58:38.773Z,99881.38
2023-04-12T08:01:07.726Z,99900.75
2023-04-12T08:03:35.953Z,99897.53
2023-04-12T08:06:04.167Z,99929.72
2023-04-12T08:08:32.063Z,99935.47
2023-04-12T08:11:08.080Z,99931.63
2023-04-12T08:13:37.583Z,99909.09
2023-04-12T08:16:06.793Z,99922.28
2023-04-12T08:18:34.744Z,99911.81
2023-04-12T08:21:02.833Z,99926.72
2023-04-12T08:23:30.942Z,99847.72
2023-04-12T08:26:03.785Z,99937.81
2023-04-12T08:28:32.285Z,99932.06
2023-04-12T08:31:00.237Z,99864.00
2023-04-12T08:33:28.019Z,99919.06
2023-04-12T08:35:55.888Z,99899.75
2023-04-12T08:38:37.290Z,99893.50
2023-04-12T08:41:11.729Z,99910.25
2023-04-12T08:43:45.200Z,99876.66
2023-04-12T08:46:18.221Z,99788.47
2023-04-12T08:48:54.395Z,99867.91
2023-04-12T08:51:23.239Z,99886.91
2023-04-12T08:53:51.782Z,99816.72
2023-04-12T08:56:21.033Z,99883.69
2023-04-12T08:58:49.815Z,99832.03
2023-04-12T09:01:20.467Z,99883.69
2023-04-12T09:03:48.646Z,99884.50
2023-04-12T09:06:16.952Z,99843.81
2023-04-12T09:08:57.525Z,99879.03
2023-04-12T09:11:28.244Z,99878.25
2023-04-12T09:13:58.254Z,99886.59
2023-04-12T09:16:42.558Z,99866.34
2023-04-12T09:19:10.492Z,99885.66
2023-04-12T09:21:52.743Z,99863.66
2023-04-12T09:24:24.483Z,99834.09
2023-04-12T09:27:06.260Z,99863.06
2023-04-12T09:29:34.487Z,99840.69
2023-04-12T09:32:08.217Z,99850.38
2023-04-12T09:34:37.425Z,99844.00
2023-04-12T09:37:17.863Z,99844.97
2023-04-12T09:39:45.572Z,99802.25
2023-04-12T09:42:32.270Z,99835.50
2023-04-12T09:45:19.423Z,99832.94
2023-04-12T09:47:47.757Z,99842.63
2023-04-12T09:50:29.079Z,99841.50
2023-04-12T09:52:58.698Z,99831.25
2023-04-12T09:55:28.597Z,99830.19
2023-04-12T09:57:56.836Z,99766.69
2023-04-12T10:00:27.109Z,99765.91
2023-04-12T10:02:57.025Z,99820.72
2023-04-12T10:05:27.922Z,99796.75
2023-04-12T10:07:58.856Z,99817.53
2023-04-12T10:10:31.660Z,99812.22
2023-04-12T10:13:00.766Z,99801.16
2023-04-12T10:15:30.299Z,99799.41
2023-04-12T10:18:07.905Z,99804.53
2023-04-12T10:20:42.115Z,99791.41
2023-04-12T10:23:12.448Z,99804.72
2023-04-12T10:25:44.881Z,99806.31
2023-04-12T10:28:23.211Z,99783.19
2023-04-12T10:30:53.416Z,99800.06
2023-04-12T10:33:34.319Z,99791.88
2023-04-12T10:36:12.127Z,99785.75
2023-04-12T10:38:47.806Z,99784.50
2023-04-12T10:41:22.569Z,99770.03
2023-04-12T10:43:52.344Z,99792.81
2023-04-12T10:46:41.276Z,99777.25
2023-04-12T10:49:13.829Z,99748.03
2023-04-12T10:52:01.159Z,99760.75
2023-04-12T10:54:29.791Z,99758.81
2023-04-12T10:56:57.697Z,99737.81
2023-04-12T11:00:05.797Z,99747.75
2023-04-12T11:02:36.766Z,99738.13
2023-04-12T11:05:05.672Z,99670.53
2023-04-12T11:07:55.077Z,99740.84
2023-04-12T11:10:41.949Z,99741.66
2023-04-12T11:13:17.401Z,99732.03
2023-04-12T11:15:45.307Z,99703.66
2023-04-12T11:18:13.764Z,99734.94
2023-04-12T11:20:41.699Z,99580.09
2023-04-12T11:23:11.798Z,99688.69
2023-04-12T11:25:40.560Z,99723.84
2023-04-12T11:28:21.175Z,99713.41
2023-04-12T11:30:54.794Z,99709.56
2023-04-12T11:33:52.282Z,99677.94
2023-04-12T11:36:20.406Z,99688.06
2023-04-12T11:38:48.437Z,99662.53
2023-04-12T11:41:18.720Z,99690.91
2023-04-12T11:43:48.391Z,99693.00
2023-04-12T11:46:16.690Z,99625.81
2023-04-12T11:48:47.229Z,99694.75
2023-04-12T11:51:21.705Z,99685.94
2023-04-12T11:53:53.458Z,99629.47
2023-04-12T11:56:21.828Z,99671.97
2023-04-12T11:58:50.086Z,99653.69
2023-04-12T12:01:19.899Z,99571.13
2023-04-12T12:03:49.564Z,99651.28
2023-04-12T12:06:19.185Z,99668.09
2023-04-12T12:08:47.259Z,99675.16
2023-04-12T12:11:15.714Z,99656.50
2023-04-12T12:13:51.894Z,99647.53
2023-04-12T12:16:25.806Z,99656.69
2023-04-12T12:18:54.423Z,99652.34
2023-04-12T12:21:22.738Z,99658.28
2023-04-12T12:23:50.596Z,99657.16
2023-04-12T12:26:27.430Z,99648.63
2023-04-12T12:29:06.271Z,99631.47
2023-04-12T12:31:34.122Z,99652.31
2023-04-12T12:34:04.268Z,99622.94
2023-04-12T12:36:36.520Z,99602.91
2023-04-12T12:39:13.134Z,99616.22
2023-04-12T12:41:41.574Z,99642.31
2023-04-12T12:44:11.589Z,99649.72
2023-04-12T12:49:10.553Z,99580.09
2023-04-12T12:51:39.635Z,99558.81
2023-04-12T12:54:08.009Z,99635.44
2023-04-12T12:56:37.166Z,99614.94
2023-04-12T12:59:04.923Z,99640.22
2023-04-12T13:01:33.879Z,99625.44
2023-04-12T13:04:13.583Z,99636.81
2023-04-12T13:06:45.342Z,99623.41
2023-04-12T13:09:13.320Z,99637.38
2023-04-12T13:11:41.075Z,99647.75
2023-04-12T13:14:09.884Z,99616.81
2023-04-12T13:16:37.925Z,99608.13
2023-04-12T13:19:07.009Z,99615.31
2023-04-12T13:21:37.831Z,99570.75
2023-04-12T13:24:07.792Z,99610.69
2023-04-12T13:26:35.675Z,99600.75
2023-04-12T13:29:04.699Z,99591.94
2023-04-12T13:31:32.396Z,99610.06
2023-04-12T13:34:00.540Z,99521.09
2023-04-12T13:36:28.729Z,99595.16
2023-04-12T13:38:57.042Z,99558.09
2023-04-12T13:41:26.317Z,99583.72
2023-04-12T13:43:55.029Z,99586.56
2023-04-12T13:46:23.112Z,99562.09
2023-04-12T13:48:53.167Z,99592.63
2023-04-12T13:51:21.677Z,99578.66
2023-04-12T13:53:49.758Z,99572.03
2023-04-12T13:56:18.022Z,99559.19
2023-04-12T13:58:45.724Z,99586.25
2023-04-12T14:01:13.880Z,99570.84
2023-04-12T14:03:41.773Z,99580.31
2023-04-12T14:06:10.053Z,99556.63
2023-04-12T14:08:37.995Z,99568.03
2023-04-12T14:11:07.863Z,99580.38
2023-04-12T14:13:35.670Z,99557.25
2023-04-12T14:16:04.017Z,99561.63
2023-04-12T14:18:31.916Z,99556.81
2023-04-12T14:20:59.816Z,99551.34
2023-04-12T14:23:27.881Z,99502.19
2023-04-12T14:25:55.749Z,99573.09
2023-04-12T14:28:27.864Z,99510.31
2023-04-12T14:30:55.639Z,99534.50
2023-04-12T14:33:25.511Z,99587.53
2023-04-12T14:35:53.949Z,99549.06
2023-04-12T14:38:23.089Z,99548.22
2023-04-12T14:40:51.855Z,99518.97
2023-04-12T14:43:19.708Z,99564.88
2023-04-12T14:45:50.165Z,99582.72
2023-04-12T14:48:18.321Z,99529.44
2023-04-12T14:50:46.015Z,99560.28
2023-04-12T14:53:14.223Z,99574.06
2023-04-12T14:55:44.779Z,99586.13
2023-04-12T14:58:13.100Z,99564.72
2023-04-12T15:00:41.982Z,99557.72
2023-04-12T15:03:10.983Z,99573.25
2023-04-12T15:05:39.151Z,99526.19
2023-04-12T15:08:07.692Z,99516.25
2023-04-12T15:10:36.786Z,99575.59
2023-04-12T15:13:04.664Z,99535.75
2023-04-12T15:15:32.626Z,99588.97
2023-04-12T15:18:00.497Z,99593.47
2023-04-12T15:20:28.369Z,99625.91
2023-04-12T15:22:56.553Z,99514.34
2023-04-12T15:25:24.756Z,99601.47
2023-04-12T15:27:52.633Z,99570.75
2023-04-12T15:30:20.516Z,99640.31
2023-04-12T15:32:49.115Z,99604.91
2023-04-12T15:35:26.478Z,99626.69
2023-04-12T15:37:55.739Z,99616.34
2023-04-12T15:40:24.670Z,99633.28
2023-04-12T15:42:53.964Z,99633.28
2023-04-12T15:45:23.055Z,99599.19
2023-04-12T15:47:52.076Z,99575.94
2023-04-12T15:50:19.982Z,99659.44
2023-04-12T15:52:48.350Z,99609.16
2023-04-12T15:55:19.024Z,99642.81
2023-04-12T15:57:47.229Z,99645.69
2023-04-12T16:00:26.360Z,99672.94
2023-04-12T16:02:56.271Z,99658.50
2023-04-12T16:05:27.594Z,99651.94
2023-04-12T16:07:56.817Z,99681.28
2023-04-12T16:10:25.002Z,99661.41
2023-04-12T16:12:54.393Z,99704.75
2023-04-12T16:15:22.816Z,99681.50
2023-04-12T16:17:55.775Z,99709.56
2023-04-12T16:20:24.499Z,99724.66
2023-04-12T16:22:58.863Z,99670.00
2023-04-12T16:25:30.406Z,99727.22
2023-04-12T16:28:02.521Z,99690.41
2023-04-12T16:30:32.564Z,99661.94
2023-04-12T16:33:00.720Z,99715.25
2023-04-12T16:35:28.609Z,99718.94
2023-04-12T16:37:56.526Z,99681.41
2023-04-12T16:40:27.283Z,99745.78
2023-04-12T16:42:55.493Z,99725.56
2023-04-12T16:45:23.985Z,99720.75
2023-04-12T16:47:51.983Z,99733.28
2023-04-12T16:50:22.132Z,99742.59
2023-04-12T16:52:51.920Z,99753.84
2023-04-12T16:55:19.893Z,99757.22
2023-04-12T16:57:49.890Z,99692.69
2023-04-12T17:00:23.999Z,99753.06
2023-04-12T17:02:53.928Z,99771.50
2023-04-12T17:05:23.971Z,99760.13
2023-04-12T17:07:54.381Z,99758.50
2023-04-12T17:10:25.487Z,99730.25
2023-04-12T17:12:56.856Z,99758.84
2023-04-12T17:15:26.824Z,99691.28
2023-04-12T17:18:01.633Z,99763.63
2023-04-12T17:20:29.728Z,99768.97
2023-04-12T17:22:58.999Z,99764.13
2023-04-12T17:25:30.222Z,99767.53
2023-04-12T17:27:59.607Z,99716.47
2023-04-12T17:30:28.117Z,99727.84
2023-04-12T17:32:57.786Z,99703.13
2023-04-12T17:35:25.853Z,99776.50
2023-04-12T17:37:53.648Z,99797.34
2023-04-12T17:40:21.517Z,99726.88
2023-04-12T17:42:49.525Z,99791.09
2023-04-12T17:45:18.506Z,99770.06
2023-04-12T17:47:47.618Z,99788.34
2023-04-12T17:50:15.403Z,99767.50
2023-04-12T17:52:43.333Z,99788.69
2023-04-12T17:55:12.613Z,99794.00
2023-04-12T17:57:40.990Z,99776.34
2023-04-12T18:00:12.016Z,99756.41
2023-04-12T18:02:46.781Z,99786.94
2023-04-12T18:05:14.846Z,99770.06
2023-04-12T18:07:43.262Z,99793.03
2023-04-12T18:10:15.644Z,99753.53
2023-04-12T18:12:45.242Z,99771.31
2023-04-12T18:15:13.152Z,99762.84
2023-04-12T18:17:41.176Z,99793.81
2023-04-12T18:20:12.402Z,99766.72
2023-04-12T18:22:40.625Z,99764.94
2023-04-12T18:25:09.143Z,99780.97
2023-04-12T18:27:37.296Z,99825.31
2023-04-12T18:30:05.585Z,99825.63
2023-04-12T18:32:34.532Z,99814.41
2023-04-12T18:35:04.760Z,99800.88
2023-04-12T18:37:32.438Z,99809.41
2023-04-12T18:40:00.832Z,99723.19
2023-04-12T18:42:28.586Z,99765.56
2023-04-12T18:44:58.296Z,99758.53
2023-04-12T18:47:26.834Z,99792.22
2023-04-12T18:49:55.415Z,99800.75
2023-04-12T18:52:23.324Z,99844.44
2023-04-12T18:54:51.480Z,99852.63
2023-04-12T18:57:19.476Z,99780.19
2023-04-12T18:59:49.271Z,99850.72
2023-04-12T19:02:18.380Z,99829.97
2023-04-12T19:04:46.274Z,99815.00
2023-04-12T19:07:14.246Z,99855.03
2023-04-12T19:09:42.227Z,99867.25
2023-04-12T19:12:14.864Z,99854.09
2023-04-12T19:14:51.676Z,99862.28
2023-04-12T19:17:36.603Z,99861.16
2023-04-12T19:20:09.570Z,99852.47
2023-04-12T19:22:37.513Z,99866.63
2023-04-12T19:25:05.948Z,99870.78
2023-04-12T19:27:34.188Z,99842.47
2023-04-12T19:30:03.956Z,99848.59
2023-04-12T19:32:33.968Z,99880.91
2023-04-12T19:35:02.080Z,99794.13
2023-04-12T19:37:34.906Z,99855.47
2023-04-12T19:40:02.756Z,99908.00
2023-04-12T19:42:30.873Z,99909.44
2023-04-12T19:45:00.644Z,99894.66
2023-04-12T19:47:29.202Z,99934.16
2023-04-12T19:49:57.080Z,99915.03
2023-04-12T19:52:27.329Z,99935.28
2023-04-12T19:54:58.313Z,99931.72
2023-04-12T19:57:27.767Z,99976.25
2023-04-12T19:59:57.788Z,99984.09
2023-04-12T20:02:26.086Z,99923.63
2023-04-12T20:05:03.398Z,99963.03
2023-04-12T20:07:41.766Z,99991.19
2023-04-12T20:10:19.671Z,99999.38
2023-04-12T20:12:51.993Z,100016.06
2023-04-12T20:15:20.751Z,100002.75
2023-04-12T20:17:50.077Z,99929.38
2023-04-12T20:20:17.912Z,99958.25
2023-04-12T20:22:52.052Z,99985.28
2023-04-12T20:25:22.788Z,99977.53
2023-04-12T20:27:52.500Z,100022.91
2023-04-12T20:30:21.508Z,100024.03
2023-04-12T20:32:49.600Z,100021.13
2023-04-12T20:35:18.816Z,99994.41
2023-04-12T20:37:51.592Z,100034.44
2023-04-12T20:40:20.255Z,99956.03
2023-04-12T20:42:51.112Z,100026.41
2023-04-12T20:45:21.855Z,99960.19
2023-04-12T20:47:50.150Z,100031.72
2023-04-12T20:50:19.089Z,100022.56
2023-04-12T20:52:49.829Z,99937.97
2023-04-12T20:55:18.055Z,99956.47
2023-04-12T20:57:46.039Z,100018.97
2023-04-12T21:00:19.026Z,99986.97
2023-04-12T21:02:46.998Z,99992.22
2023-04-12T21:05:17.193Z,99978.16
2023-04-12T21:07:47.234Z,99999.97
2023-04-12T21:10:15.488Z,99992.72
2023-04-12T21:12:45.177Z,99998.97
2023-04-12T21:15:27.297Z,99994.47
2023-04-12T21:17:56.698Z,100006.06
2023-04-12T21:20:26.832Z,100007.97
2023-04-12T21:22:54.905Z,99934.41
2023-04-12T21:25:23.504Z,100004.25
2023-04-12T21:27:51.540Z,99962.44
2023-04-12T21:30:19.580Z,99973.78
2023-04-12T21:32:47.598Z,99964.47
2023-04-12T21:35:16.849Z,99975.75
2023-04-12T21:37:44.784Z,99996.84
2023-04-12T21:40:13.551Z,100007.63
2023-04-12T21:42:41.821Z,99994.47
2023-04-12T21:45:10.307Z,99959.94
2023-04-12T21:47:44.065Z,100001.53
2023-04-12T21:50:15.176Z,99816.59
2023-04-12T21:52:44.292Z,99970.31
2023-04-12T21:55:12.222Z,99968.28
2023-04-12T21:57:40.320Z,99994.63
2023-04-12T22:00:10.257Z,99979.22
2023-04-12T22:02:42.190Z,99959.63
2023-04-12T22:05:10.729Z,99989.69
2023-04-12T22:07:41.725Z,99977.56
2023-04-12T22:10:12.450Z,99984.94
2023-04-12T22:12:40.406Z,99985.31
2023-04-12T22:15:11.729Z,99900.97
2023-04-12T22:17:40.956Z,99978.50
2023-04-12T22:20:16.329Z,99993.25
2023-04-12T22:22:56.526Z,99993.06
2023-04-12T22:25:25.068Z,99954.22
2023-04-12T22:28:00.840Z,99954.22
2023-04-12T22:30:48.669Z,99975.59
2023-04-12T22:33:24.684Z,99980.72
2023-04-12T22:35:57.213Z,99999.44
2023-04-12T22:38:25.605Z,99979.00
2023-04-12T22:40:55.166Z,99947.03
2023-04-12T22:43:24.897Z,99983.66
2023-04-12T22:45:54.124Z,99946.84
2023-04-12T22:48:25.211Z,99974.09
2023-04-12T22:50:54.618Z,99995.47
2023-04-12T22:53:22.612Z,99998.16
2023-04-12T22:55:54.182Z,99976.00
2023-04-12T22:58:22.136Z,99940.59
2023-04-12T23:00:50.954Z,99931.09
2023-04-12T23:03:20.802Z,100001.91
2023-04-12T23:05:50.812Z,99947.75
2023-04-12T23:08:18.802Z,99978.03
2023-04-12T23:10:46.616Z,100007.47
2023-04-12T23:13:14.450Z,99969.31
2023-04-12T23:15:45.650Z,99998.19
2023-04-12T23:18:16.120Z,100001.53
2023-04-12T23:20:44.965Z,99979.16
2023-04-12T23:23:12.888Z,99987.75
2023-04-12T23:25:42.159Z,99971.25
2023-04-12T23:28:13.458Z,100049.06
2023-04-12T23:30:49.514Z,100046.22
2023-04-12T23:33:21.384Z,100051.66
2023-04-12T23:35:56.241Z,100078.19
2023-04-12T23:38:26.198Z,100069.84
2023-04-12T23:40:54.502Z,100049.69
2023-04-12T23:43:24.776Z,100047.81
2023-04-12T23:45:53.286Z,100043.66
2023-04-12T23:48:21.926Z,100064.03
2023-04-12T23:50:50.303Z,100076.00
2023-04-12T23:53:19.215Z,100053.13
2023-04-12T23:55:49.408Z,99999.31
2023-04-12T23:58:19.829Z,100002.94
